Time;durP1;ratioP1;P1;durP2;ratioP2;P2;SDS_P1;SDS_P2;PMS_P1;PMS_P2;Temp;Humidity;BMP_temperature;BMP_pressure;BME280_temperature;BME280_humidity;BME280_pressure;Samples;Min_cycle;Max_cycle;Signal;HPM_P1;HPM_P2
2023/10/09 00:02:14;;;;;;;15.75;5.95;;;;;;;10.79;100.00;97422.19;5014889;28;20030;-68
2023/10/09 00:04:44;;;;;;;15.23;6.10;;;;;;;10.78;100.00;97419.81;5017836;28;20073;-68
2023/10/09 00:07:12;;;;;;;15.85;6.10;;;;;;;10.76;100.00;97417.41;4999282;28;20470;-69
2023/10/09 00:09:48;;;;;;;14.15;5.85;;;;;;;10.68;100.00;97421.13;5019400;28;20124;-68
2023/10/09 00:12:22;;;;;;;12.43;5.32;;;;;;;10.63;100.00;97419.41;4999191;28;20041;-68
2023/10/09 00:14:50;;;;;;;11.77;6.00;;;;;;;10.60;100.00;97416.56;5005884;28;20113;-69
2023/10/09 00:17:18;;;;;;;15.13;5.70;;;;;;;10.60;100.00;97420.09;5011217;28;20113;-68
2023/10/09 00:19:49;;;;;;;17.40;6.22;;;;;;;10.60;100.00;97413.84;4998016;28;20093;-70
2023/10/09 00:22:38;;;;;;;11.73;5.15;;;;;;;10.59;100.00;97414.97;4997961;28;20452;-66
2023/10/09 00:25:10;;;;;;;12.93;5.85;;;;;;;10.55;100.00;97411.34;5000038;28;20049;-67
2023/10/09 00:27:46;;;;;;;13.18;5.35;;;;;;;10.53;100.00;97414.41;5012267;28;20466;-66
2023/10/09 00:30:21;;;;;;;16.42;5.80;;;;;;;10.51;100.00;97423.00;5000852;28;20060;-67
2023/10/09 00:35:36;;;;;;;15.07;5.90;;;;;;;10.50;100.00;97415.13;4985284;28;20037;-67
2023/10/09 00:38:14;;;;;;;13.30;5.45;;;;;;;10.50;100.00;97410.44;5006268;28;20056;-65
2023/10/09 00:40:47;;;;;;;16.77;5.93;;;;;;;10.51;100.00;97409.31;4999435;28;20046;-67
2023/10/09 00:43:19;;;;;;;10.77;5.78;;;;;;;10.54;100.00;97402.34;4982034;28;20134;-67
2023/10/09 00:45:46;;;;;;;10.85;5.68;;;;;;;10.55;100.00;97401.16;5014059;28;20096;-67
2023/10/09 00:48:22;;;;;;;14.52;6.05;;;;;;;10.54;100.00;97398.81;5008885;28;20046;-67
2023/10/09 00:50:52;;;;;;;16.38;6.47;;;;;;;10.47;100.00;97397.44;5003527;28;20048;-66
2023/10/09 00:53:25;;;;;;;;;;;;;;;10.40;100.00;97393.72;4986475;28;20501;-66
2023/10/09 00:56:03;;;;;;;19.13;6.43;;;;;;;10.32;100.00;97387.25;4995289;28;20004;-66
2023/10/09 00:58:31;;;;;;;12.63;5.78;;;;;;;10.22;100.00;97385.75;5008869;28;20065;-69
2023/10/09 01:00:58;;;;;;;19.60;6.30;;;;;;;10.18;100.00;97389.56;5001484;28;20039;-68
2023/10/09 01:03:24;;;;;;;13.32;5.90;;;;;;;10.16;100.00;97389.91;5005061;28;20045;-67
2023/10/09 01:08:43;;;;;;;16.08;5.35;;;;;;;10.20;100.00;97384.53;5001876;28;20632;-68
2023/10/09 01:11:29;;;;;;;11.18;5.40;;;;;;;10.21;100.00;97384.19;5003844;28;20488;-67
2023/10/09 01:14:11;;;;;;;11.35;5.82;;;;;;;10.22;100.00;97387.69;5010019;28;20041;-68
2023/10/09 01:16:48;;;;;;;15.75;5.53;;;;;;;10.21;100.00;97383.38;5016028;28;20123;-68
2023/10/09 01:19:14;;;;;;;15.07;5.90;;;;;;;10.27;100.00;97377.31;4979157;28;20349;-68
2023/10/09 01:21:42;;;;;;;15.93;5.15;;;;;;;10.25;100.00;97379.59;5002984;28;20049;-67
2023/10/09 01:24:26;;;;;;;16.73;6.57;;;;;;;10.22;100.00;97376.75;5003103;28;20045;-64
2023/10/09 01:26:54;;;;;;;19.88;6.40;;;;;;;10.17;100.00;97374.25;5016123;28;20087;-67
2023/10/09 01:29:27;;;;;;;14.50;5.53;;;;;;;10.04;100.00;97384.44;5009540;28;20038;-68
2023/10/09 01:31:54;;;;;;;11.75;5.50;;;;;;;10.04;100.00;97377.03;5024305;28;20643;-68
2023/10/09 01:34:50;;;;;;;11.00;5.57;;;;;;;9.99;100.00;97376.47;5008916;28;20045;-69
2023/10/09 01:37:23;;;;;;;13.20;5.38;;;;;;;9.99;100.00;97374.53;5001996;28;20072;-68
2023/10/09 01:39:50;;;;;;;21.42;6.38;;;;;;;9.86;100.00;97373.75;5010658;28;20045;-68
2023/10/09 01:44:54;;;;;;;14.15;5.63;;;;;;;9.75;100.00;97367.97;4997236;28;20092;-68
2023/10/09 01:47:21;;;;;;;16.20;5.18;;;;;;;9.76;100.00;97363.31;4996833;28;20062;-68
2023/10/09 01:49:52;;;;;;;17.65;6.18;;;;;;;9.80;100.00;97360.69;4995119;28;20053;-68
2023/10/09 01:52:18;;;;;;;16.23;6.32;;;;;;;9.81;100.00;97356.78;4987539;28;20132;-68
2023/10/09 01:54:50;;;;;;;15.55;6.78;;;;;;;9.84;100.00;97356.13;4997521;28;20069;-68
2023/10/09 01:57:22;;;;;;;13.30;6.20;;;;;;;9.95;100.00;97354.47;5006104;28;20054;-68
2023/10/09 01:59:49;;;;;;;16.70;5.90;;;;;;;10.03;100.00;97356.28;5014732;28;20048;-67
2023/10/09 02:02:34;;;;;;;19.38;6.05;;;;;;;10.00;100.00;97354.25;5008455;28;20037;-66
2023/10/09 02:07:44;;;;;;;10.88;5.20;;;;;;;9.87;100.00;97348.00;5009853;28;20037;-66
2023/10/09 02:10:31;;;;;;;12.32;5.13;;;;;;;9.83;100.00;97349.03;5019415;28;20472;-65
2023/10/09 02:12:58;;;;;;;14.13;5.13;;;;;;;9.74;100.00;97351.91;5008437;28;20413;-67
2023/10/09 02:29:15;;;;;;;14.93;5.97;;;;;;;9.23;100.00;97356.97;5019865;28;20033;-68
2023/10/09 02:31:41;;;;;;;14.98;5.18;;;;;;;9.13;100.00;97359.03;5023843;28;20589;-67
2023/10/09 02:34:10;;;;;;;12.07;5.30;;;;;;;9.24;100.00;97347.63;5001003;28;20050;-65
2023/10/09 02:36:49;;;;;;;13.73;4.90;;;;;;;9.31;100.00;97350.56;5004463;28;20245;-67
2023/10/09 02:39:28;;;;;;;14.57;5.83;;;;;;;9.35;100.00;97349.56;4989374;28;20092;-67
2023/10/09 02:44:46;;;;;;;17.05;4.95;;;;;;;9.38;100.00;97345.34;5023633;28;20057;-67
2023/10/09 02:47:20;;;;;;;11.57;5.20;;;;;;;9.37;100.00;97347.28;4995336;28;20069;-68
2023/10/09 02:49:50;;;;;;;12.30;5.15;;;;;;;9.34;100.00;97347.97;5007472;28;20041;-67
2023/10/09 02:52:19;;;;;;;13.73;4.95;;;;;;;9.34;100.00;97341.69;4996641;28;20072;-68
2023/10/09 02:54:47;;;;;;;10.82;5.47;;;;;;;9.33;100.00;97340.91;5021847;28;20132;-67
2023/10/09 02:58:04;;;;;;;15.52;5.20;;;;;;;9.33;100.00;97340.13;5005069;28;20041;-67
2023/10/09 03:00:09;;;;;;;16.35;5.25;;;;;;;9.32;100.00;97339.31;5018824;28;20040;-69
2023/10/09 03:02:39;;;;;;;12.75;4.90;;;;;;;9.27;100.00;97341.47;5016927;28;20129;-68
2023/10/09 03:05:06;;;;;;;11.20;4.70;;;;;;;9.27;100.00;97331.31;5001517;28;20033;-69
2023/10/09 03:07:34;;;;;;;16.45;5.80;;;;;;;9.28;100.00;97332.94;5016378;28;20137;-68
2023/10/09 03:09:59;;;;;;;15.27;5.30;;;;;;;9.22;100.00;97334.31;5005822;28;20052;-67
2023/10/09 03:12:27;;;;;;;12.45;5.47;;;;;;;9.19;100.00;97327.56;4998296;28;20123;-67
2023/10/09 03:14:54;;;;;;;11.73;4.57;;;;;;;9.19;100.00;97324.06;5002404;28;20073;-67
2023/10/09 03:17:19;;;;;;;11.45;5.00;;;;;;;9.10;100.00;97315.97;5003741;28;20076;-67
2023/10/09 03:19:45;;;;;;;10.02;5.07;;;;;;;8.80;100.00;97326.31;5012727;28;20077;-67
2023/10/09 03:22:11;;;;;;;10.35;4.95;;;;;;;8.46;100.00;97313.84;5002726;28;20068;-67
2023/10/09 03:24:37;;;;;;;11.90;5.22;;;;;;;8.39;100.00;97314.34;5001251;28;20043;-67
2023/10/09 03:27:04;;;;;;;15.30;5.28;;;;;;;8.53;100.00;97319.53;5019174;28;20058;-68
2023/10/09 03:29:29;;;;;;;12.68;4.72;;;;;;;8.55;100.00;97312.63;5008285;28;20045;-67
2023/10/09 03:31:56;;;;;;;17.80;6.03;;;;;;;8.63;100.00;97316.38;5010550;28;20558;-68
2023/10/09 03:34:22;;;;;;;11.45;5.53;;;;;;;8.78;100.00;97323.13;4983784;28;21242;-67
2023/10/09 03:36:48;;;;;;;10.35;4.63;;;;;;;8.91;100.00;97326.66;5004055;28;20042;-67
2023/10/09 03:39:33;;;;;;;12.85;5.05;;;;;;;8.94;100.00;97315.06;5006942;28;20041;-67
2023/10/09 03:41:58;;;;;;;17.85;5.53;;;;;;;8.84;100.00;97324.50;4987255;28;20069;-67
2023/10/09 03:44:30;;;;;;;19.70;6.38;;;;;;;8.67;100.00;97317.31;5008073;28;20042;-67
2023/10/09 03:46:56;;;;;;;14.45;6.30;;;;;;;8.48;100.00;97317.03;5014967;28;20133;-67
2023/10/09 03:49:25;;;;;;;12.48;5.65;;;;;;;8.52;100.00;97316.03;4989261;28;20052;-67
2023/10/09 03:51:51;;;;;;;12.20;5.28;;;;;;;8.64;100.00;97317.97;5005476;28;20039;-68
2023/10/09 03:54:20;;;;;;;12.73;5.30;;;;;;;8.75;100.00;97315.59;5017471;28;20434;-67
2023/10/09 03:56:49;;;;;;;15.48;5.60;;;;;;;8.91;100.00;97326.66;5011026;28;20080;-67
2023/10/09 03:59:21;;;;;;;14.30;5.40;;;;;;;9.01;100.00;97317.22;5013137;28;20514;-67
2023/10/09 04:01:48;;;;;;;13.57;5.18;;;;;;;8.97;100.00;97315.19;5004504;28;20187;-67
2023/10/09 04:04:14;;;;;;;13.63;4.90;;;;;;;8.93;100.00;97318.91;5000594;28;20545;-67
2023/10/09 04:06:40;;;;;;;10.60;4.60;;;;;;;8.83;100.00;97320.16;5015307;28;20208;-67
2023/10/09 04:11:57;;;;;;;13.90;4.57;;;;;;;8.84;100.00;97323.69;5021900;28;20511;-67
2023/10/09 04:14:32;;;;;;;12.75;5.18;;;;;;;8.80;100.00;97313.47;5017471;28;20879;-68
2023/10/09 04:17:32;;;;;;;14.35;4.93;;;;;;;8.68;100.00;97310.72;5012902;28;20073;-67
2023/10/09 04:20:15;;;;;;;7.28;4.13;;;;;;;8.74;100.00;97314.03;4997012;28;20042;-66
2023/10/09 04:22:50;;;;;;;9.85;4.40;;;;;;;8.69;100.00;97308.78;5020691;28;20558;-66
2023/10/09 04:25:41;;;;;;;18.00;4.25;;;;;;;8.62;100.00;97309.31;5001667;28;20030;-67
2023/10/09 04:28:22;;;;;;;10.57;5.25;;;;;;;8.40;100.00;97315.97;4996270;28;20504;-66
2023/10/09 04:30:53;;;;;;;11.77;5.07;;;;;;;8.23;100.00;97311.50;5016468;28;20626;-67
2023/10/09 04:38:59;;;;;;;12.95;4.40;;;;;;;8.55;100.00;97300.88;5005308;28;20120;-66
2023/10/09 04:41:27;;;;;;;11.73;4.78;;;;;;;8.58;100.00;97303.75;4988249;28;20643;-67
2023/10/09 04:44:04;;;;;;;11.57;4.07;;;;;;;8.65;100.00;97296.94;5003489;28;20443;-67
2023/10/09 04:46:43;;;;;;;10.20;4.60;;;;;;;8.66;100.00;97298.53;5012313;28;20570;-67
2023/10/09 04:49:27;;;;;;;8.32;4.25;;;;;;;8.64;100.00;97307.03;5008724;28;20469;-69
2023/10/09 04:52:04;;;;;;;10.52;5.05;;;;;;;8.67;100.00;97300.13;5016848;28;20041;-68
2023/10/09 04:54:39;;;;;;;11.77;5.20;;;;;;;8.69;100.00;97303.31;4998851;28;20047;-67
2023/10/09 04:57:17;;;;;;;14.15;5.00;;;;;;;8.68;100.00;97307.97;5018640;28;20073;-68
2023/10/09 04:59:48;;;;;;;11.07;5.53;;;;;;;8.63;100.00;97300.00;5001919;28;20037;-68
2023/10/09 05:02:19;;;;;;;14.90;5.15;;;;;;;8.68;100.00;97307.97;4993696;28;20116;-68
2023/10/09 05:04:47;;;;;;;13.73;5.25;;;;;;;8.64;100.00;97300.78;5012653;28;20133;-68
2023/10/09 05:10:14;;;;;;;12.20;5.15;;;;;;;8.53;100.00;97305.91;5009265;28;20048;-69
2023/10/09 05:12:46;;;;;;;11.90;5.13;;;;;;;8.53;100.00;97305.91;5011703;28;20037;-68
2023/10/09 05:15:14;;;;;;;11.85;5.45;;;;;;;8.46;100.00;97295.53;4990173;28;20077;-68
2023/10/09 05:17:39;;;;;;;20.15;5.60;;;;;;;8.53;100.00;97309.41;5004571;28;20038;-68
2023/10/09 05:22:58;;;;;;;12.65;4.95;;;;;;;8.65;100.00;97314.13;5016968;28;20045;-69
2023/10/09 05:25:58;;;;;;;11.15;6.00;;;;;;;8.68;100.00;97307.97;4996028;28;20049;-69
2023/10/09 05:28:31;;;;;;;17.48;5.50;;;;;;;8.71;100.00;97311.97;4997278;28;20432;-69
2023/10/09 05:31:07;;;;;;;20.35;8.27;;;;;;;8.75;100.00;97318.31;5017018;28;20045;-70
2023/10/09 05:33:39;;;;;;;11.38;4.05;;;;;;;8.70;100.00;97313.91;5015324;28;20492;-69
2023/10/09 05:36:14;;;;;;;9.10;4.43;;;;;;;8.63;100.00;97318.34;4983209;28;20104;-66
2023/10/09 05:38:46;;;;;;;9.73;4.50;;;;;;;8.64;100.00;97317.97;5020753;28;20448;-68
2023/10/09 05:41:31;;;;;;;12.30;5.25;;;;;;;8.65;100.00;97324.25;5015779;28;20037;-69
2023/10/09 05:44:55;;;;;;;16.38;5.68;;;;;;;8.68;100.00;97331.75;5020825;28;20053;-69
2023/10/09 05:49:45;;;;;;;16.45;5.88;;;;;;;8.72;100.00;97330.75;5002216;28;20054;-68
2023/10/09 06:16:41;;;;;;;15.52;6.05;;;;;;;9.29;100.00;97329.06;5023285;28;20045;-68
2023/10/09 06:24:22;;;;;;;20.83;5.83;;;;;;;9.97;100.00;97343.19;5018339;28;20459;-69
2023/10/09 06:27:14;;;;;;;9.95;4.35;;;;;;;10.27;100.00;97349.13;5022555;28;20041;-69
2023/10/09 06:34:52;;;;;;;15.02;6.78;;;;;;;10.23;100.00;97362.72;5023794;28;20645;-68
2023/10/09 06:42:43;;;;;;;15.80;6.93;;;;;;;10.92;100.00;97351.66;5015465;28;20477;-70
2023/10/09 06:47:53;;;;;;;17.85;9.93;;;;;;;12.49;100.00;97353.59;5022932;28;20136;-69
2023/10/09 06:53:57;;;;;;;15.13;6.37;;;;;;;13.67;100.00;97365.84;5023394;28;20072;-69
2023/10/09 06:55:51;;;;;;;19.92;6.72;;;;;;;14.86;100.00;97370.09;5024384;28;20038;-69
2023/10/09 06:58:27;;;;;;;12.65;5.65;;;;;;;15.95;100.00;97378.88;5018491;28;20107;-69
2023/10/09 07:03:51;;;;;;;14.40;5.20;;;;;;;17.39;93.04;97388.47;5022103;28;20049;-68
2023/10/09 07:06:25;;;;;;;19.55;5.63;;;;;;;17.06;90.49;97386.06;5018127;28;20043;-71
2023/10/09 07:24:56;;;;;;;20.13;6.57;;;;;;;17.10;99.84;97420.06;5021162;28;20052;-70
2023/10/09 07:38:11;;;;;;;28.33;7.00;;;;;;;16.35;100.00;97407.53;5019042;28;20926;-68
2023/10/09 07:44:19;;;;;;;22.13;7.28;;;;;;;18.05;100.00;97411.41;5016773;28;20184;-67
2023/10/09 07:49:14;;;;;;;24.13;7.40;;;;;;;19.65;99.71;97409.03;5022230;28;20591;-67
2023/10/09 07:51:43;;;;;;;24.40;7.22;;;;;;;20.67;86.37;97412.44;5020472;28;20492;-67
2023/10/09 07:54:14;;;;;;;29.27;7.82;;;;;;;20.52;86.76;97422.13;5016853;28;20045;-69
2023/10/09 07:56:45;;;;;;;23.27;7.90;;;;;;;20.89;86.72;97421.28;5020678;28;20041;-68
2023/10/09 07:59:17;;;;;;;33.60;8.07;;;;;;;21.85;80.89;97417.50;5016790;28;20045;-68
2023/10/09 08:01:54;;;;;;;32.17;7.32;;;;;;;22.88;75.29;97416.75;5022932;28;20446;-68
2023/10/09 08:04:37;;;;;;;27.45;7.30;;;;;;;23.57;70.53;97432.81;5018432;28;20150;-67
2023/10/09 08:07:19;;;;;;;30.13;9.75;;;;;;;23.92;68.53;97427.59;5018780;28;20125;-65
2023/10/09 08:09:48;;;;;;;26.33;11.38;;;;;;;24.12;65.32;97433.09;5018433;28;20037;-70
2023/10/09 08:15:12;;;;;;;25.58;6.80;;;;;;;24.30;65.71;97435.41;5021884;28;20111;-70
2023/10/09 08:17:38;;;;;;;;;;;;;;;24.07;66.66;97442.00;5022283;28;20042;-69
2023/10/09 08:20:12;;;;;;;25.00;8.55;;;;;;;22.83;73.98;97434.81;5019880;28;19920;-66
2023/10/09 08:22:42;;;;;;;24.35;7.97;;;;;;;22.10;79.78;97429.00;5022615;28;20069;-68
2023/10/09 08:25:26;;;;;;;21.40;8.23;;;;;;;21.77;83.97;97428.00;5015161;28;20048;-69
2023/10/09 08:27:57;;;;;;;30.80;8.82;;;;;;;21.91;84.42;97438.91;5022913;28;20041;-70
2023/10/09 08:33:03;;;;;;;26.30;8.13;;;;;;;22.83;79.56;97428.44;5023374;28;20049;-69
2023/10/09 08:35:29;;;;;;;24.25;8.30;;;;;;;23.17;75.91;97435.72;5014889;28;20046;-70
2023/10/09 08:38:08;;;;;;;25.55;8.02;;;;;;;23.31;76.77;97438.19;5019080;28;20033;-69
2023/10/09 08:40:45;;;;;;;21.00;7.53;;;;;;;23.48;72.44;97441.81;5020385;28;20121;-70
2023/10/09 08:43:18;;;;;;;19.42;7.13;;;;;;;24.18;69.86;97450.91;5011373;28;20042;-69
2023/10/09 08:45:47;;;;;;;20.00;7.18;;;;;;;24.03;70.24;97442.09;5012655;28;20041;-69
2023/10/09 08:48:17;;;;;;;23.95;7.68;;;;;;;23.25;71.45;97445.53;5016368;28;20872;-69
2023/10/09 08:50:44;;;;;;;23.48;7.45;;;;;;;22.32;76.62;97435.00;5022833;28;20050;-67
2023/10/09 08:53:10;;;;;;;21.92;7.57;;;;;;;22.44;75.81;97436.38;5031194;28;20044;-68
2023/10/09 08:55:40;;;;;;;22.38;7.90;;;;;;;22.86;78.47;97438.75;5028004;28;20393;-68
2023/10/09 08:58:13;;;;;;;;;;;;;;;22.73;79.11;97433.03;5018348;28;20052;-69
2023/10/09 09:00:43;;;;;;;29.23;8.48;;;;;;;22.94;75.40;97437.38;5022351;28;19921;-68
2023/10/09 09:03:08;;;;;;;20.05;7.38;;;;;;;23.32;76.58;97447.34;5010812;28;20160;-67
2023/10/09 09:05:35;;;;;;;17.42;7.40;;;;;;;23.54;73.63;97448.44;5008368;28;20132;-68
2023/10/09 09:08:02;;;;;;;20.63;7.05;;;;;;;23.64;72.69;97450.22;5023041;28;20392;-69
2023/10/09 09:10:35;;;;;;;24.92;7.65;;;;;;;23.31;74.95;97448.59;5018856;28;20088;-69
2023/10/09 09:13:03;;;;;;;20.85;8.15;;;;;;;21.86;83.52;97433.81;5022830;28;20045;-69
2023/10/09 09:15:30;;;;;;;26.73;8.20;;;;;;;22.54;80.58;97440.16;5020205;28;20341;-69
2023/10/09 09:18:11;;;;;;;25.83;8.30;;;;;;;22.50;78.33;97440.25;5022155;28;20523;-69
2023/10/09 09:20:40;;;;;;;19.23;7.65;;;;;;;22.29;79.15;97430.28;5017185;28;20050;-69
2023/10/09 09:23:12;;;;;;;30.63;7.82;;;;;;;22.86;75.90;97427.56;5016529;28;20049;-69
2023/10/09 09:25:44;;;;;;;29.23;8.75;;;;;;;22.99;70.51;97438.88;5010886;28;20042;-70
2023/10/09 09:28:19;;;;;;;27.55;7.47;;;;;;;23.14;70.94;97431.00;5015201;28;20045;-68
2023/10/09 09:30:50;;;;;;;26.27;7.40;;;;;;;23.15;69.21;97427.00;5023012;28;20112;-70
2023/10/09 09:33:40;;;;;;;22.10;7.43;;;;;;;23.01;67.77;97431.66;5020424;28;20097;-69
2023/10/09 09:36:06;;;;;;;20.50;7.18;;;;;;;22.62;71.36;97427.66;5017463;28;20744;-69
2023/10/09 09:38:50;;;;;;;29.15;7.63;;;;;;;22.67;71.19;97429.16;5022311;28;20103;-69
2023/10/09 09:41:26;;;;;;;25.23;7.93;;;;;;;22.96;68.12;97420.97;5018643;28;20076;-68
2023/10/09 09:43:55;;;;;;;27.90;6.72;;;;;;;22.91;70.78;97416.69;5025688;28;20173;-68
2023/10/09 09:46:27;;;;;;;;;;;;;;;22.19;74.58;97422.09;5022060;28;20041;-69
2023/10/09 09:49:00;;;;;;;25.00;7.05;;;;;;;22.13;76.48;97430.16;5017563;28;19932;-70
2023/10/09 09:51:28;;;;;;;25.02;7.80;;;;;;;21.63;78.44;97422.66;5005978;28;20093;-68
2023/10/09 09:53:54;;;;;;;21.98;7.20;;;;;;;21.62;80.15;97424.63;5027070;28;20490;-68
2023/10/09 09:56:21;;;;;;;24.48;7.38;;;;;;;21.49;77.04;97429.22;5022849;28;20046;-68
2023/10/09 09:58:53;;;;;;;30.13;7.82;;;;;;;21.67;77.61;97426.94;5027433;28;20049;-69
2023/10/09 10:01:26;;;;;;;29.42;6.72;;;;;;;21.68;74.63;97422.94;5021837;28;20100;-69
2023/10/09 10:03:59;;;;;;;24.55;6.07;;;;;;;21.67;71.33;97426.94;5025747;28;20041;-68
2023/10/09 10:06:28;;;;;;;23.48;6.85;;;;;;;21.89;70.45;97423.78;5013138;28;20064;-69
2023/10/09 10:08:54;;;;;;;29.63;6.43;;;;;;;21.90;66.22;97420.59;5026559;28;20037;-68
2023/10/09 10:11:45;;;;;;;18.38;6.22;;;;;;;21.79;66.80;97422.78;5021303;28;20034;-68
2023/10/09 10:14:21;;;;;;;27.08;7.38;;;;;;;21.76;68.64;97418.03;5020881;28;20045;-68
2023/10/09 10:17:18;;;;;;;25.45;7.07;;;;;;;21.62;69.90;97421.84;5033375;28;20037;-68
2023/10/09 10:22:47;;;;;;;22.90;6.03;;;;;;;21.74;70.54;97424.03;5025015;28;20042;-67
2023/10/09 10:25:35;;;;;;;;;;;;;;;21.91;66.97;97415.78;5021400;28;20477;-70
2023/10/09 10:28:38;;;;;;;25.88;6.32;;;;;;;21.36;69.34;97410.28;5009012;28;19913;-69
2023/10/09 10:31:09;;;;;;;30.25;5.80;;;;;;;21.52;70.78;97404.09;5021166;28;20389;-67
2023/10/09 10:33:54;;;;;;;25.25;5.22;;;;;;;21.86;68.31;97411.50;5019806;28;20042;-70
2023/10/09 10:36:23;;;;;;;28.88;6.70;;;;;;;21.36;71.57;97415.84;5019494;28;20054;-70
2023/10/09 10:39:21;;;;;;;24.83;6.50;;;;;;;20.41;78.38;97413.88;5024816;28;20394;-67
2023/10/09 10:41:54;;;;;;;29.27;6.60;;;;;;;21.16;76.91;97409.41;5012277;28;20132;-68
2023/10/09 10:44:42;;;;;;;22.52;5.70;;;;;;;20.94;76.78;97414.44;5020493;28;20488;-70
2023/10/09 10:47:25;;;;;;;30.33;6.50;;;;;;;21.12;77.22;97408.63;5019941;28;20099;-68
2023/10/09 10:49:52;;;;;;;23.08;5.30;;;;;;;21.79;74.41;97405.25;5010632;28;20077;-70
2023/10/09 10:52:44;;;;;;;28.38;6.28;;;;;;;22.12;71.66;97401.47;5003234;28;20041;-68
2023/10/09 10:55:18;;;;;;;24.60;5.93;;;;;;;22.80;68.82;97402.16;5020990;28;20041;-70
2023/10/09 10:57:53;;;;;;;23.90;5.07;;;;;;;23.23;66.87;97406.06;5024293;28;20068;-69
2023/10/09 11:03:18;;;;;;;30.23;6.10;;;;;;;23.69;64.48;97400.56;5014164;28;20047;-65
2023/10/09 11:05:50;;;;;;;18.38;5.20;;;;;;;23.38;66.90;97398.91;5023713;28;20091;-68
2023/10/09 11:08:22;;;;;;;19.77;5.35;;;;;;;23.82;65.03;97395.88;5018115;28;20572;-68
2023/10/09 11:10:50;;;;;;;21.20;5.43;;;;;;;24.00;63.12;97395.41;5024546;28;20045;-69
2023/10/09 11:13:30;;;;;;;24.63;5.97;;;;;;;23.90;64.04;97402.88;5019283;28;20037;-69
2023/10/09 11:16:14;;;;;;;26.60;5.90;;;;;;;24.08;64.53;97393.22;5024825;28;20591;-67
2023/10/09 11:18:46;;;;;;;20.00;5.15;;;;;;;24.24;63.89;97395.97;5023813;28;20046;-68
2023/10/09 11:23:53;;;;;;;28.85;5.95;;;;;;;24.09;64.56;97386.38;5023122;28;20044;-68
2023/10/09 11:26:28;;;;;;;21.90;5.38;;;;;;;24.32;64.79;97386.16;5019782;28;20045;-69
2023/10/09 11:29:16;;;;;;;25.25;5.60;;;;;;;24.37;63.46;97390.44;5024645;28;20484;-68
2023/10/09 11:31:57;;;;;;;22.52;5.03;;;;;;;24.45;65.42;97391.78;5024432;28;20041;-70
2023/10/09 11:34:31;;;;;;;20.00;5.18;;;;;;;24.35;65.31;97390.88;5018763;28;20538;-69
2023/10/09 11:37:31;;;;;;;27.35;5.70;;;;;;;24.72;64.51;97385.88;5023869;28;20038;-70
2023/10/09 11:39:58;;;;;;;27.65;5.80;;;;;;;25.11;62.06;97372.69;5013561;28;20046;-69
2023/10/09 11:45:20;;;;;;;24.77;5.35;;;;;;;24.88;61.31;97365.38;5019895;28;20508;-67
2023/10/09 11:47:56;;;;;;;24.40;5.35;;;;;;;24.18;61.13;97362.16;5023779;28;20053;-70
2023/10/09 11:50:43;;;;;;;25.42;5.35;;;;;;;23.95;59.49;97371.56;5019829;28;20900;-70
2023/10/09 11:53:17;;;;;;;22.88;6.95;;;;;;;24.15;64.39;97367.84;5019592;28;20041;-69
2023/10/09 11:55:48;;;;;;;24.95;5.47;;;;;;;24.23;69.13;97366.41;5025948;28;20196;-69
2023/10/09 11:58:15;;;;;;;28.10;6.03;;;;;;;23.80;71.61;97351.53;5023094;28;20045;-68
2023/10/09 12:00:47;;;;;;;28.52;6.40;;;;;;;23.22;74.96;97357.75;5024729;28;20132;-69
2023/10/09 12:03:13;;;;;;;22.95;5.57;;;;;;;23.09;75.91;97356.88;5018258;28;20042;-70
2023/10/09 12:05:42;;;;;;;19.10;5.03;;;;;;;22.70;77.61;97341.75;5023870;28;20049;-67
2023/10/09 12:08:08;;;;;;;22.52;6.07;;;;;;;22.42;78.93;97338.34;5018793;28;20041;-69
2023/10/09 12:10:38;;;;;;;25.95;5.97;;;;;;;22.34;80.29;97334.13;5024187;28;20044;-69
2023/10/09 12:13:04;;;;;;;;;;;;;;;22.25;78.89;97334.66;5021821;28;20041;-67
2023/10/09 12:15:37;;;;;;;29.17;6.57;;;;;;;22.33;79.38;97335.34;5023938;28;19935;-70
2023/10/09 12:18:18;;;;;;;19.10;5.90;;;;;;;22.26;78.49;97333.47;5022016;28;20076;-63
2023/10/09 12:21:02;;;;;;;19.23;5.82;;;;;;;22.25;78.39;97337.44;5023755;28;20037;-67
2023/10/09 12:23:27;;;;;;;26.73;5.72;;;;;;;22.23;78.74;97333.53;5011613;28;20519;-68
2023/10/09 12:25:56;;;;;;;24.88;5.85;;;;;;;22.10;78.82;97333.38;5022863;28;20054;-69
2023/10/09 12:28:22;;;;;;;24.23;5.55;;;;;;;21.86;80.10;97327.84;5017513;28;20049;-67
2023/10/09 12:30:51;;;;;;;21.95;6.30;;;;;;;21.66;83.71;97324.22;5023845;28;20076;-68
2023/10/09 12:33:19;;;;;;;27.80;5.82;;;;;;;21.61;83.27;97331.09;5018623;28;20037;-69
2023/10/09 12:35:45;;;;;;;32.50;6.35;;;;;;;21.04;88.76;97320.84;5022853;28;20434;-68
2023/10/09 12:38:12;;;;;;;46.10;7.13;;;;;;;21.22;88.23;97324.13;5018272;28;20045;-69
2023/10/09 12:40:50;;;;;;;29.00;6.43;;;;;;;21.10;88.98;97328.28;5005287;28;20082;-69
2023/10/09 12:43:19;;;;;;;28.73;6.47;;;;;;;20.95;89.77;97324.94;5018481;28;20041;-68
2023/10/09 12:45:46;;;;;;;36.35;7.10;;;;;;;20.75;91.02;97324.03;5023411;28;20042;-70
2023/10/09 12:48:12;;;;;;;23.23;6.25;;;;;;;20.49;93.97;97315.22;5018284;28;20116;-70
2023/10/09 12:50:44;;;;;;;23.88;7.18;;;;;;;20.47;93.22;97319.63;5024088;28;20041;-70
2023/10/09 12:53:11;;;;;;;33.13;6.65;;;;;;;20.48;92.60;97321.22;5029454;28;20041;-70
2023/10/09 12:55:40;;;;;;;29.75;7.35;;;;;;;20.48;92.67;97315.66;5023608;28;20049;-69
2023/10/09 12:58:07;;;;;;;25.83;6.57;;;;;;;20.32;93.06;97321.81;5018017;28;20048;-69
2023/10/09 13:00:44;;;;;;;31.00;6.43;;;;;;;20.17;95.23;97310.84;5022336;28;20041;-69
2023/10/09 13:03:16;;;;;;;25.75;6.50;;;;;;;20.09;96.48;97314.91;5017308;28;20041;-68
2023/10/09 13:05:53;;;;;;;25.77;6.22;;;;;;;19.90;98.23;97304.41;5042821;28;20303;-68
2023/10/09 13:08:23;;;;;;;31.45;7.50;;;;;;;19.85;99.72;97303.66;5018057;28;20056;-68
2023/10/09 13:11:00;;;;;;;22.65;5.90;;;;;;;19.93;99.77;97301.56;5022459;28;20060;-69
2023/10/09 13:13:46;;;;;;;29.17;7.05;;;;;;;19.97;97.59;97299.56;5017978;28;20127;-69
2023/10/09 13:16:27;;;;;;;26.83;6.07;;;;;;;19.90;98.45;97302.44;5018514;28;20500;-68
2023/10/09 13:18:59;;;;;;;33.38;6.47;;;;;;;19.99;97.40;97301.94;5027249;28;20693;-70
2023/10/09 13:21:26;;;;;;;25.77;6.25;;;;;;;20.10;96.59;97304.59;5021237;28;20045;-69
2023/10/09 13:23:54;;;;;;;22.27;6.18;;;;;;;20.13;96.24;97309.31;5025655;28;20042;-69
2023/10/09 13:26:25;;;;;;;29.95;6.85;;;;;;;20.16;94.90;97303.69;5020927;28;20041;-68
2023/10/09 13:28:55;;;;;;;21.60;5.78;;;;;;;20.03;96.23;97300.69;5027095;28;20065;-70
2023/10/09 13:31:25;;;;;;;18.70;5.80;;;;;;;19.87;100.00;97297.69;5019130;28;20052;-69
2023/10/09 13:33:54;;;;;;;25.20;6.30;;;;;;;19.80;100.00;97295.75;5013954;28;20034;-70
2023/10/09 13:36:26;;;;;;;19.17;6.43;;;;;;;19.66;100.00;97295.88;5003461;28;20041;-69
2023/10/09 13:39:19;;;;;;;26.60;6.57;;;;;;;19.64;100.00;97295.50;5026242;28;20052;-70
2023/10/09 13:41:44;;;;;;;26.98;5.90;;;;;;;19.65;100.00;97297.09;5014401;28;20128;-70
2023/10/09 13:44:10;;;;;;;23.95;6.57;;;;;;;19.77;100.00;97293.03;5003249;28;20184;-70
2023/10/09 13:46:41;;;;;;;24.45;5.95;;;;;;;19.67;100.00;97291.91;4999834;28;20432;-70
2023/10/09 13:49:13;;;;;;;25.33;6.47;;;;;;;19.61;100.00;97279.69;5015945;28;20124;-69
2023/10/09 13:51:46;;;;;;;30.70;6.80;;;;;;;19.47;100.00;97280.59;5025213;28;20044;-69
2023/10/09 13:54:21;;;;;;;22.88;5.93;;;;;;;19.40;100.00;97267.56;5021279;28;20072;-70
2023/10/09 13:56:52;;;;;;;31.23;6.45;;;;;;;19.32;100.00;97268.03;5026165;28;20038;-69
2023/10/09 13:59:22;;;;;;;25.52;5.72;;;;;;;19.32;100.00;97263.28;5021156;28;20090;-68
2023/10/09 14:01:51;;;;;;;25.77;6.18;;;;;;;19.29;100.00;97253.00;5009114;28;20131;-71
2023/10/09 14:04:19;;;;;;;33.78;6.15;;;;;;;19.38;100.00;97247.75;5019802;28;20064;-69
2023/10/09 14:06:45;;;;;;;24.13;6.10;;;;;;;19.38;100.00;97238.63;5013808;28;20034;-70
2023/10/09 14:09:27;;;;;;;22.65;6.57;;;;;;;19.36;100.00;97241.03;5015863;28;20392;-69
2023/10/09 14:12:10;;;;;;;27.95;7.20;;;;;;;19.21;100.00;97235.63;5018456;28;20052;-70
2023/10/09 14:14:38;;;;;;;28.42;6.47;;;;;;;19.23;100.00;97237.97;5010724;28;20040;-69